sensor_id;sensor_type;location;lat;lon;timestamp;pressure;altitude;pressure_sealevel;temperature;humidity
60212;BME280;46079;48.686;15.598;2023-02-27T00:01:33;100205.63;;;20.32;39.63
60212;BME280;46079;48.686;15.598;2023-02-27T00:03:59;100208.25;;;20.32;39.64
60212;BME280;46079;48.686;15.598;2023-02-27T00:06:25;100213.53;;;20.32;39.67
60212;BME280;46079;48.686;15.598;2023-02-27T00:08:51;100202.16;;;20.32;39.54
60212;BME280;46079;48.686;15.598;2023-02-27T00:11:17;100209.22;;;20.31;39.90
60212;BME280;46079;48.686;15.598;2023-02-27T00:13:42;100212.66;;;20.32;39.56
60212;BME280;46079;48.686;15.598;2023-02-27T00:16:08;100218.88;;;20.31;39.68
60212;BME280;46079;48.686;15.598;2023-02-27T00:18:33;100220.69;;;20.30;39.87
60212;BME280;46079;48.686;15.598;2023-02-27T00:20:59;100225.94;;;20.30;39.95
60212;BME280;46079;48.686;15.598;2023-02-27T00:23:24;100214.59;;;20.30;39.67
60212;BME280;46079;48.686;15.598;2023-02-27T00:25:50;100225.94;;;20.30;39.89
60212;BME280;46079;48.686;15.598;2023-02-27T00:28:16;100226.78;;;20.31;39.90
60212;BME280;46079;48.686;15.598;2023-02-27T00:30:42;100228.56;;;20.30;39.96
60212;BME280;46079;48.686;15.598;2023-02-27T00:33:07;100230.38;;;20.30;39.79
60212;BME280;46079;48.686;15.598;2023-02-27T00:35:33;100233.94;;;20.29;39.88
60212;BME280;46079;48.686;15.598;2023-02-27T00:37:58;100233.94;;;20.29;40.07
60212;BME280;46079;48.686;15.598;2023-02-27T00:40:24;100231.31;;;20.29;39.92
60212;BME280;46079;48.686;15.598;2023-02-27T00:42:50;100243.50;;;20.30;40.05
60212;BME280;46079;48.686;15.598;2023-02-27T00:45:16;100237.53;;;20.28;40.02
60212;BME280;46079;48.686;15.598;2023-02-27T00:47:41;100243.63;;;20.28;39.82
60212;BME280;46079;48.686;15.598;2023-02-27T00:50:08;100243.63;;;20.28;39.81
60212;BME280;46079;48.686;15.598;2023-02-27T00:52:34;100236.72;;;20.27;39.94
60212;BME280;46079;48.686;15.598;2023-02-27T00:54:59;100244.44;;;20.29;39.82
60212;BME280;46079;48.686;15.598;2023-02-27T00:57:25;100247.22;;;20.27;39.93
60212;BME280;46079;48.686;15.598;2023-02-27T00:59:50;100244.59;;;20.27;39.87
60212;BME280;46079;48.686;15.598;2023-02-27T01:02:16;100239.34;;;20.27;39.86
60212;BME280;46079;48.686;15.598;2023-02-27T01:04:42;100240.28;;;20.26;39.87
60212;BME280;46079;48.686;15.598;2023-02-27T01:07:08;100249.03;;;20.27;39.92
60212;BME280;46079;48.686;15.598;2023-02-27T01:09:34;100252.47;;;20.27;39.97
60212;BME280;46079;48.686;15.598;2023-02-27T01:11:59;100247.22;;;20.27;40.19
60212;BME280;46079;48.686;15.598;2023-02-27T01:14:25;100246.41;;;20.27;40.03
60212;BME280;46079;48.686;15.598;2023-02-27T01:16:50;100254.13;;;20.28;40.14
60212;BME280;46079;48.686;15.598;2023-02-27T01:19:16;100258.56;;;20.28;40.02
60212;BME280;46079;48.686;15.598;2023-02-27T01:21:42;100264.78;;;20.27;40.27
60212;BME280;46079;48.686;15.598;2023-02-27T01:24:08;100269.88;;;20.28;40.09
60212;BME280;46079;48.686;15.598;2023-02-27T01:26:34;100257.72;;;20.27;40.17
60212;BME280;46079;48.686;15.598;2023-02-27T01:29:01;100262.16;;;20.27;40.38
60212;BME280;46079;48.686;15.598;2023-02-27T01:31:26;100268.22;;;20.27;40.31
60212;BME280;46079;48.686;15.598;2023-02-27T01:33:52;100248.88;;;20.28;40.21
60212;BME280;46079;48.686;15.598;2023-02-27T01:36:17;100259.38;;;20.28;40.36
60212;BME280;46079;48.686;15.598;2023-02-27T01:38:42;100253.31;;;20.28;40.38
60212;BME280;46079;48.686;15.598;2023-02-27T01:41:08;100258.41;;;20.29;40.37
60212;BME280;46079;48.686;15.598;2023-02-27T01:43:52;100256.75;;;20.28;40.53
60212;BME280;46079;48.686;15.598;2023-02-27T01:46:18;100256.75;;;20.28;40.54
60212;BME280;46079;48.686;15.598;2023-02-27T01:48:43;100260.22;;;20.29;40.29
60212;BME280;46079;48.686;15.598;2023-02-27T01:51:15;100261.03;;;20.29;40.39
60212;BME280;46079;48.686;15.598;2023-02-27T01:53:44;100253.16;;;20.29;40.47
60212;BME280;46079;48.686;15.598;2023-02-27T01:56:26;100256.75;;;20.28;40.64
60212;BME280;46079;48.686;15.598;2023-02-27T01:59:02;100253.16;;;20.29;40.39
60212;BME280;46079;48.686;15.598;2023-02-27T02:01:30;100262.72;;;20.30;40.54
60212;BME280;46079;48.686;15.598;2023-02-27T02:06:23;100261.03;;;20.29;40.39
60212;BME280;46079;48.686;15.598;2023-02-27T02:08:50;100257.47;;;20.30;40.42
60212;BME280;46079;48.686;15.598;2023-02-27T02:11:19;100259.28;;;20.30;40.34
60212;BME280;46079;48.686;15.598;2023-02-27T02:13:45;100261.75;;;20.31;40.53
60212;BME280;46079;48.686;15.598;2023-02-27T02:19:13;100253.88;;;20.31;40.50
60212;BME280;46079;48.686;15.598;2023-02-27T02:24:39;100259.13;;;20.31;40.83
60212;BME280;46079;48.686;15.598;2023-02-27T02:43:07;100256.38;;;20.33;40.65
60212;BME280;46079;48.686;15.598;2023-02-27T02:48:25;100254.56;;;20.33;41.01
60212;BME280;46079;48.686;15.598;2023-02-27T02:51:04;100256.38;;;20.33;40.82
60212;BME280;46079;48.686;15.598;2023-02-27T02:56:16;100273.09;;;20.32;40.92
60212;BME280;46079;48.686;15.598;2023-02-27T02:59:05;100275.44;;;20.35;40.81
60212;BME280;46079;48.686;15.598;2023-02-27T03:01:41;100276.41;;;20.34;40.58
60212;BME280;46079;48.686;15.598;2023-02-27T03:04:15;100277.25;;;20.34;40.86
60212;BME280;46079;48.686;15.598;2023-02-27T03:06:58;100282.50;;;20.34;40.87
60212;BME280;46079;48.686;15.598;2023-02-27T03:09:40;100274.63;;;20.34;40.72
60212;BME280;46079;48.686;15.598;2023-02-27T03:12:10;100281.56;;;20.35;40.78
60212;BME280;46079;48.686;15.598;2023-02-27T03:14:49;100289.44;;;20.35;40.97
60212;BME280;46079;48.686;15.598;2023-02-27T03:17:22;100286.81;;;20.35;40.64
60212;BME280;46079;48.686;15.598;2023-02-27T03:20:00;100293.72;;;20.36;41.05
60212;BME280;46079;48.686;15.598;2023-02-27T03:22:32;100288.47;;;20.36;40.81
60212;BME280;46079;48.686;15.598;2023-02-27T03:25:01;100294.56;;;20.37;40.69
60212;BME280;46079;48.686;15.598;2023-02-27T03:27:34;100300.63;;;20.37;40.78
60212;BME280;46079;48.686;15.598;2023-02-27T03:30:07;100302.31;;;20.38;40.70
60212;BME280;46079;48.686;15.598;2023-02-27T03:32:55;100302.31;;;20.38;40.79
60212;BME280;46079;48.686;15.598;2023-02-27T03:35:31;100305.66;;;20.40;40.68
60212;BME280;46079;48.686;15.598;2023-02-27T03:43:29;100322.25;;;20.41;40.88
60212;BME280;46079;48.686;15.598;2023-02-27T03:46:16;100327.50;;;20.41;40.87
60212;BME280;46079;48.686;15.598;2023-02-27T03:48:43;100330.81;;;20.43;40.80
60212;BME280;46079;48.686;15.598;2023-02-27T03:51:11;100332.63;;;20.42;40.60
60212;BME280;46079;48.686;15.598;2023-02-27T03:53:47;100330.97;;;20.41;40.81
60212;BME280;46079;48.686;15.598;2023-02-27T03:56:17;100331.69;;;20.43;40.82
60212;BME280;46079;48.686;15.598;2023-02-27T03:58:45;100329.03;;;20.43;40.81
60212;BME280;46079;48.686;15.598;2023-02-27T04:01:10;100330.69;;;20.44;40.79
60212;BME280;46079;48.686;15.598;2023-02-27T04:03:40;100331.69;;;20.43;40.88
60212;BME280;46079;48.686;15.598;2023-02-27T04:06:07;100333.31;;;20.44;40.88
60212;BME280;46079;48.686;15.598;2023-02-27T04:09:04;100339.41;;;20.45;40.98
60212;BME280;46079;48.686;15.598;2023-02-27T04:12:10;100336.66;;;20.47;40.91
60212;BME280;46079;48.686;15.598;2023-02-27T04:17:31;100339.16;;;20.48;40.86
60212;BME280;46079;48.686;15.598;2023-02-27T04:21:02;100339.16;;;20.48;40.99
60212;BME280;46079;48.686;15.598;2023-02-27T04:24:12;100340.00;;;20.49;40.96
60212;BME280;46079;48.686;15.598;2023-02-27T04:26:27;100335.59;;;20.49;41.25
60212;BME280;46079;48.686;15.598;2023-02-27T04:34:39;100345.00;;;20.52;41.16
60212;BME280;46079;48.686;15.598;2023-02-27T04:37:16;100347.63;;;20.52;41.09
60212;BME280;46079;48.686;15.598;2023-02-27T04:39:51;100356.22;;;20.54;40.96
60212;BME280;46079;48.686;15.598;2023-02-27T04:42:21;100356.22;;;20.54;40.91
60212;BME280;46079;48.686;15.598;2023-02-27T04:44:50;100359.72;;;20.54;41.07
60212;BME280;46079;48.686;15.598;2023-02-27T04:47:19;100359.72;;;20.54;40.74
60212;BME280;46079;48.686;15.598;2023-02-27T04:49:50;100366.63;;;20.55;40.94
60212;BME280;46079;48.686;15.598;2023-02-27T04:52:20;100366.50;;;20.57;40.93
60212;BME280;46079;48.686;15.598;2023-02-27T04:57:23;100358.63;;;20.57;40.97
60212;BME280;46079;48.686;15.598;2023-02-27T04:59:52;100357.66;;;20.58;41.01
60212;BME280;46079;48.686;15.598;2023-02-27T05:02:32;100355.84;;;20.58;41.03
60212;BME280;46079;48.686;15.598;2023-02-27T05:05:01;100355.03;;;20.58;40.86
60212;BME280;46079;48.686;15.598;2023-02-27T05:07:36;100368.03;;;20.59;41.07
60212;BME280;46079;48.686;15.598;2023-02-27T05:10:05;100374.13;;;20.60;40.88
60212;BME280;46079;48.686;15.598;2023-02-27T05:12:51;100372.34;;;20.60;41.15
60212;BME280;46079;48.686;15.598;2023-02-27T05:15:30;100374.97;;;20.60;41.00
60212;BME280;46079;48.686;15.598;2023-02-27T05:21:14;100374.97;;;20.60;41.07
60212;BME280;46079;48.686;15.598;2023-02-27T05:26:21;100373.88;;;20.63;41.03
60212;BME280;46079;48.686;15.598;2023-02-27T05:29:01;100376.50;;;20.63;41.19
60212;BME280;46079;48.686;15.598;2023-02-27T05:31:36;100383.41;;;20.64;41.00
60212;BME280;46079;48.686;15.598;2023-02-27T05:34:39;100386.03;;;20.64;41.17
60212;BME280;46079;48.686;15.598;2023-02-27T05:37:30;100380.78;;;20.64;41.34
60212;BME280;46079;48.686;15.598;2023-02-27T05:39:58;100387.72;;;20.65;40.92
60212;BME280;46079;48.686;15.598;2023-02-27T05:42:49;100384.25;;;20.64;41.22
60212;BME280;46079;48.686;15.598;2023-02-27T05:45:19;100385.94;;;20.65;41.05
60212;BME280;46079;48.686;15.598;2023-02-27T05:47:53;100391.19;;;20.65;41.06
60212;BME280;46079;48.686;15.598;2023-02-27T05:50:24;100387.59;;;20.67;41.17
60212;BME280;46079;48.686;15.598;2023-02-27T05:52:52;100392.84;;;20.67;40.95
60212;BME280;46079;48.686;15.598;2023-02-27T05:55:24;100396.31;;;20.67;41.10
60212;BME280;46079;48.686;15.598;2023-02-27T06:02:56;100412.06;;;20.67;41.08
60212;BME280;46079;48.686;15.598;2023-02-27T06:05:24;100412.06;;;20.67;41.16
60212;BME280;46079;48.686;15.598;2023-02-27T06:07:50;100425.09;;;20.69;41.14
60212;BME280;46079;48.686;15.598;2023-02-27T06:10:17;100425.09;;;20.69;41.22
60212;BME280;46079;48.686;15.598;2023-02-27T06:12:44;100430.22;;;20.70;41.19
60212;BME280;46079;48.686;15.598;2023-02-27T06:15:10;100432.03;;;20.70;41.54
60212;BME280;46079;48.686;15.598;2023-02-27T06:17:36;100443.25;;;20.72;41.34
60212;BME280;46079;48.686;15.598;2023-02-27T06:20:04;100441.72;;;20.69;39.99
60212;BME280;46079;48.686;15.598;2023-02-27T06:22:29;100440.53;;;20.62;35.98
60212;BME280;46079;48.686;15.598;2023-02-27T06:24:55;100450.75;;;20.44;33.37
60212;BME280;46079;48.686;15.598;2023-02-27T06:27:20;100447.13;;;20.24;32.31
60212;BME280;46079;48.686;15.598;2023-02-27T06:29:45;100451.31;;;20.04;31.51
60212;BME280;46079;48.686;15.598;2023-02-27T06:32:11;100452.09;;;19.84;30.86
60212;BME280;46079;48.686;15.598;2023-02-27T06:34:36;100463.91;;;19.67;30.36
60212;BME280;46079;48.686;15.598;2023-02-27T06:37:02;100467.81;;;19.50;29.92
60212;BME280;46079;48.686;15.598;2023-02-27T06:39:27;100475.06;;;19.35;30.00
60212;BME280;46079;48.686;15.598;2023-02-27T06:41:53;100471.84;;;19.20;29.98
60212;BME280;46079;48.686;15.598;2023-02-27T06:44:18;100475.50;;;19.06;29.43
60212;BME280;46079;48.686;15.598;2023-02-27T06:46:44;100481.56;;;18.96;29.83
60212;BME280;46079;48.686;15.598;2023-02-27T06:49:10;100482.34;;;18.85;29.65
60212;BME280;46079;48.686;15.598;2023-02-27T06:51:35;100486.34;;;18.78;29.31
60212;BME280;46079;48.686;15.598;2023-02-27T06:54:00;100490.53;;;18.80;32.11
60212;BME280;46079;48.686;15.598;2023-02-27T06:56:26;100490.22;;;18.85;33.01
60212;BME280;46079;48.686;15.598;2023-02-27T06:58:51;100500.00;;;18.94;33.91
60212;BME280;46079;48.686;15.598;2023-02-27T07:01:17;100498.59;;;19.01;34.97
60212;BME280;46079;48.686;15.598;2023-02-27T07:03:42;100499.59;;;19.12;35.49
60212;BME280;46079;48.686;15.598;2023-02-27T07:06:08;100506.03;;;19.19;36.08
60212;BME280;46079;48.686;15.598;2023-02-27T07:08:34;100504.50;;;19.27;36.14
60212;BME280;46079;48.686;15.598;2023-02-27T07:11:00;100503.09;;;19.35;36.32
60212;BME280;46079;48.686;15.598;2023-02-27T07:13:25;100509.66;;;19.40;36.31
60212;BME280;46079;48.686;15.598;2023-02-27T07:15:51;100515.25;;;19.47;36.41
60212;BME280;46079;48.686;15.598;2023-02-27T07:18:16;100512.28;;;19.51;36.50
60212;BME280;46079;48.686;15.598;2023-02-27T07:20:42;100511.81;;;19.58;36.73
60212;BME280;46079;48.686;15.598;2023-02-27T07:23:07;100515.16;;;19.60;36.61
60212;BME280;46079;48.686;15.598;2023-02-27T07:25:34;100508.59;;;19.65;36.66
60212;BME280;46079;48.686;15.598;2023-02-27T07:28:00;100510.09;;;19.69;36.86
60212;BME280;46079;48.686;15.598;2023-02-27T07:30:25;100509.00;;;19.72;36.94
60212;BME280;46079;48.686;15.598;2023-02-27T07:32:51;100508.63;;;19.76;36.88
60212;BME280;46079;48.686;15.598;2023-02-27T07:35:16;100503.28;;;19.78;37.01
60212;BME280;46079;48.686;15.598;2023-02-27T07:37:42;100508.28;;;19.81;36.84
60212;BME280;46079;48.686;15.598;2023-02-27T07:40:08;100506.38;;;19.83;37.04
60212;BME280;46079;48.686;15.598;2023-02-27T07:42:34;100511.41;;;19.86;37.05
60212;BME280;46079;48.686;15.598;2023-02-27T07:45:00;100505.91;;;19.89;37.00
60212;BME280;46079;48.686;15.598;2023-02-27T07:47:26;100511.88;;;19.91;36.94
60212;BME280;46079;48.686;15.598;2023-02-27T07:49:51;100507.31;;;19.93;37.08
60212;BME280;46079;48.686;15.598;2023-02-27T07:52:17;100499.22;;;19.96;37.29
60212;BME280;46079;48.686;15.598;2023-02-27T07:54:43;100504.22;;;19.99;37.34
60212;BME280;46079;48.686;15.598;2023-02-27T07:57:08;100508.50;;;20.01;37.30
60212;BME280;46079;48.686;15.598;2023-02-27T07:59:33;100505.63;;;20.04;37.16
60212;BME280;46079;48.686;15.598;2023-02-27T08:01:59;100511.63;;;20.06;37.33
60212;BME280;46079;48.686;15.598;2023-02-27T08:04:24;100514.09;;;20.07;37.24
60212;BME280;46079;48.686;15.598;2023-02-27T08:06:50;100514.00;;;20.09;37.28
60212;BME280;46079;48.686;15.598;2023-02-27T08:09:15;100514.72;;;20.11;37.23
60212;BME280;46079;48.686;15.598;2023-02-27T08:11:40;100524.25;;;20.12;37.45
60212;BME280;46079;48.686;15.598;2023-02-27T08:14:06;100520.66;;;20.13;37.30
60212;BME280;46079;48.686;15.598;2023-02-27T08:16:32;100524.00;;;20.15;37.21
60212;BME280;46079;48.686;15.598;2023-02-27T08:18:58;100523.06;;;20.16;37.40
60212;BME280;46079;48.686;15.598;2023-02-27T08:21:23;100533.34;;;20.19;37.50
60212;BME280;46079;48.686;15.598;2023-02-27T08:23:49;100522.69;;;20.20;37.52
60212;BME280;46079;48.686;15.598;2023-02-27T08:26:14;100526.88;;;20.23;37.39
60212;BME280;46079;48.686;15.598;2023-02-27T08:28:40;100533.81;;;20.24;37.46
60212;BME280;46079;48.686;15.598;2023-02-27T08:31:05;100535.47;;;20.25;37.45
60212;BME280;46079;48.686;15.598;2023-02-27T08:33:31;100537.00;;;20.28;37.51
60212;BME280;46079;48.686;15.598;2023-02-27T08:35:57;100541.31;;;20.29;37.38
60212;BME280;46079;48.686;15.598;2023-02-27T08:38:22;100536.75;;;20.31;37.54
60212;BME280;46079;48.686;15.598;2023-02-27T08:40:49;100537.59;;;20.31;37.42
60212;BME280;46079;48.686;15.598;2023-02-27T08:43:17;100540.13;;;20.33;37.46
60212;BME280;46079;48.686;15.598;2023-02-27T08:45:43;100537.47;;;20.33;37.33
60212;BME280;46079;48.686;15.598;2023-02-27T08:48:08;100534.72;;;20.34;37.61
60212;BME280;46079;48.686;15.598;2023-02-27T08:50:34;100545.94;;;20.36;37.46
60212;BME280;46079;48.686;15.598;2023-02-27T08:52:59;100552.03;;;20.37;37.43
60212;BME280;46079;48.686;15.598;2023-02-27T08:55:25;100547.59;;;20.37;37.60
60212;BME280;46079;48.686;15.598;2023-02-27T08:57:50;100550.94;;;20.39;37.40
60212;BME280;46079;48.686;15.598;2023-02-27T09:00:16;100543.06;;;20.39;37.58
60212;BME280;46079;48.686;15.598;2023-02-27T09:02:42;100545.69;;;20.39;37.33
60212;BME280;46079;48.686;15.598;2023-02-27T09:05:07;100552.66;;;20.40;37.48
60212;BME280;46079;48.686;15.598;2023-02-27T09:07:33;100542.97;;;20.41;37.48
60212;BME280;46079;48.686;15.598;2023-02-27T09:09:59;100555.97;;;20.42;37.37
60212;BME280;46079;48.686;15.598;2023-02-27T09:12:24;100554.31;;;20.41;37.50
60212;BME280;46079;48.686;15.598;2023-02-27T09:14:50;100546.28;;;20.43;37.57
60212;BME280;46079;48.686;15.598;2023-02-27T09:17:15;100556.94;;;20.41;37.51
60212;BME280;46079;48.686;15.598;2023-02-27T09:19:41;100546.28;;;20.43;37.63
60212;BME280;46079;48.686;15.598;2023-02-27T09:22:06;100543.66;;;20.43;37.48
60212;BME280;46079;48.686;15.598;2023-02-27T09:24:31;100543.53;;;20.44;37.62
60212;BME280;46079;48.686;15.598;2023-02-27T09:26:57;100542.72;;;20.44;37.49
60212;BME280;46079;48.686;15.598;2023-02-27T09:29:22;100544.38;;;20.45;37.44
60212;BME280;46079;48.686;15.598;2023-02-27T09:31:48;100550.47;;;20.46;37.53
60212;BME280;46079;48.686;15.598;2023-02-27T09:34:14;100546.06;;;20.46;37.56
60212;BME280;46079;48.686;15.598;2023-02-27T09:36:39;100554.78;;;20.47;37.61
60212;BME280;46079;48.686;15.598;2023-02-27T09:39:04;100564.31;;;20.48;37.50
60212;BME280;46079;48.686;15.598;2023-02-27T09:41:41;100573.88;;;20.49;37.40
60212;BME280;46079;48.686;15.598;2023-02-27T09:44:24;100558.13;;;20.49;37.49
60212;BME280;46079;48.686;15.598;2023-02-27T09:46:51;100567.66;;;20.50;37.41
60212;BME280;46079;48.686;15.598;2023-02-27T09:49:18;100567.66;;;20.50;37.46
60212;BME280;46079;48.686;15.598;2023-02-27T09:51:45;100567.53;;;20.51;37.34
60212;BME280;46079;48.686;15.598;2023-02-27T09:54:11;100575.41;;;20.51;37.59
60212;BME280;46079;48.686;15.598;2023-02-27T09:57:03;100576.28;;;20.52;37.34
60212;BME280;46079;48.686;15.598;2023-02-27T09:59:34;100573.66;;;20.52;37.38
60212;BME280;46079;48.686;15.598;2023-02-27T10:02:29;100587.63;;;20.52;37.38
60212;BME280;46079;48.686;15.598;2023-02-27T10:08:05;100578.03;;;20.51;37.48
60212;BME280;46079;48.686;15.598;2023-02-27T10:10:47;100577.94;;;20.53;37.53
60212;BME280;46079;48.686;15.598;2023-02-27T10:16:16;100586.78;;;20.52;37.53
60212;BME280;46079;48.686;15.598;2023-02-27T10:19:02;100585.94;;;20.51;37.52
60212;BME280;46079;48.686;15.598;2023-02-27T10:21:33;100584.16;;;20.52;37.57
60212;BME280;46079;48.686;15.598;2023-02-27T10:26:45;100592.03;;;20.52;37.72
60212;BME280;46079;48.686;15.598;2023-02-27T10:29:26;100598.13;;;20.52;37.70
60212;BME280;46079;48.686;15.598;2023-02-27T10:32:04;100598.94;;;20.53;37.71
60212;BME280;46079;48.686;15.598;2023-02-27T10:34:33;100594.56;;;20.53;37.69
60212;BME280;46079;48.686;15.598;2023-02-27T10:37:01;100587.50;;;20.54;37.67
60212;BME280;46079;48.686;15.598;2023-02-27T10:39:29;100577.94;;;20.53;37.69
60212;BME280;46079;48.686;15.598;2023-02-27T10:42:02;100584.16;;;20.52;37.75
60212;BME280;46079;48.686;15.598;2023-02-27T10:44:29;100590.13;;;20.54;37.71
60212;BME280;46079;48.686;15.598;2023-02-27T10:46:56;100588.44;;;20.53;37.72
60212;BME280;46079;48.686;15.598;2023-02-27T10:49:21;100583.94;;;20.55;37.58
60212;BME280;46079;48.686;15.598;2023-02-27T10:54:28;100583.09;;;20.54;37.78
60212;BME280;46079;48.686;15.598;2023-02-27T10:56:56;100576.06;;;20.55;37.64
60212;BME280;46079;48.686;15.598;2023-02-27T10:59:25;100571.75;;;20.54;37.94
60212;BME280;46079;48.686;15.598;2023-02-27T11:01:56;100571.75;;;20.54;37.63
60212;BME280;46079;48.686;15.598;2023-02-27T11:04:36;100573.44;;;20.55;37.68
60212;BME280;46079;48.686;15.598;2023-02-27T11:07:06;100553.34;;;20.54;37.71
60212;BME280;46079;48.686;15.598;2023-02-27T11:09:33;100570.78;;;20.55;37.77
60212;BME280;46079;48.686;15.598;2023-02-27T11:14:48;100561.22;;;20.54;37.76
60212;BME280;46079;48.686;15.598;2023-02-27T11:17:32;100562.09;;;20.54;37.69
60212;BME280;46079;48.686;15.598;2023-02-27T11:20:00;100564.72;;;20.54;37.93
60212;BME280;46079;48.686;15.598;2023-02-27T11:22:28;100561.22;;;20.54;37.70
60212;BME280;46079;48.686;15.598;2023-02-27T11:25:17;100562.16;;;20.53;37.62
60212;BME280;46079;48.686;15.598;2023-02-27T11:27:43;100554.28;;;20.53;37.85
60212;BME280;46079;48.686;15.598;2023-02-27T11:32:53;100548.19;;;20.52;37.83
60212;BME280;46079;48.686;15.598;2023-02-27T11:35:23;100543.75;;;20.53;37.60
60212;BME280;46079;48.686;15.598;2023-02-27T11:37:51;100551.56;;;20.54;37.82
60212;BME280;46079;48.686;15.598;2023-02-27T11:40:19;100558.59;;;20.54;37.71
60212;BME280;46079;48.686;15.598;2023-02-27T11:42:48;100555.97;;;20.54;37.82
60212;BME280;46079;48.686;15.598;2023-02-27T11:45:36;100550.00;;;20.52;37.73
60212;BME280;46079;48.686;15.598;2023-02-27T11:48:09;100549.13;;;20.51;37.83
60212;BME280;46079;48.686;15.598;2023-02-27T11:50:52;100557.00;;;20.51;37.77
60212;BME280;46079;48.686;15.598;2023-02-27T11:55:54;100544.72;;;20.52;37.65
60212;BME280;46079;48.686;15.598;2023-02-27T11:58:22;100546.50;;;20.51;37.81
60212;BME280;46079;48.686;15.598;2023-02-27T12:01:02;100544.72;;;20.52;37.91
60212;BME280;46079;48.686;15.598;2023-02-27T12:06:09;100539.72;;;20.49;37.91
60212;BME280;46079;48.686;15.598;2023-02-27T12:08:45;100533.59;;;20.48;37.81
60212;BME280;46079;48.686;15.598;2023-02-27T12:14:19;100528.34;;;20.48;37.88
60212;BME280;46079;48.686;15.598;2023-02-27T12:16:54;100538.03;;;20.48;37.81
60212;BME280;46079;48.686;15.598;2023-02-27T12:19:25;100532.69;;;20.49;37.89
60212;BME280;46079;48.686;15.598;2023-02-27T12:22:02;100537.09;;;20.49;37.79
60212;BME280;46079;48.686;15.598;2023-02-27T12:24:56;100539.72;;;20.49;37.80
60212;BME280;46079;48.686;15.598;2023-02-27T12:27:31;100540.56;;;20.49;37.86
60212;BME280;46079;48.686;15.598;2023-02-27T12:30:24;100539.72;;;20.49;37.91
60212;BME280;46079;48.686;15.598;2023-02-27T12:32:59;100552.88;;;20.49;37.73
60212;BME280;46079;48.686;15.598;2023-02-27T12:35:31;100552.00;;;20.48;37.73
60212;BME280;46079;48.686;15.598;2023-02-27T12:37:57;100555.50;;;20.49;37.78
60212;BME280;46079;48.686;15.598;2023-02-27T12:41:06;100552.97;;;20.47;37.75
60212;BME280;46079;48.686;15.598;2023-02-27T12:43:46;100542.47;;;20.47;37.50
60212;BME280;46079;48.686;15.598;2023-02-27T12:48:55;100548.56;;;20.48;37.76
60212;BME280;46079;48.686;15.598;2023-02-27T12:51:42;100542.47;;;20.47;37.66
60212;BME280;46079;48.686;15.598;2023-02-27T12:57:26;100531.13;;;20.47;37.71
60212;BME280;46079;48.686;15.598;2023-02-27T13:00:04;100536.38;;;20.47;37.81
60212;BME280;46079;48.686;15.598;2023-02-27T13:03:04;100542.47;;;20.47;37.74
60212;BME280;46079;48.686;15.598;2023-02-27T13:05:45;100544.25;;;20.47;37.46
60212;BME280;46079;48.686;15.598;2023-02-27T13:13:40;100538.19;;;20.46;37.73
60212;BME280;46079;48.686;15.598;2023-02-27T13:16:18;100548.81;;;20.44;37.78
60212;BME280;46079;48.686;15.598;2023-02-27T13:19:34;100544.38;;;20.45;37.85
60212;BME280;46079;48.686;15.598;2023-02-27T13:21:41;100541.88;;;20.43;37.96
60212;BME280;46079;48.686;15.598;2023-02-27T13:24:22;100549.78;;;20.43;37.81
60212;BME280;46079;48.686;15.598;2023-02-27T13:27:02;100537.56;;;20.42;37.79
60212;BME280;46079;48.686;15.598;2023-02-27T13:29:43;100541.88;;;20.43;37.70
60212;BME280;46079;48.686;15.598;2023-02-27T13:32:25;100536.75;;;20.42;37.92
60212;BME280;46079;48.686;15.598;2023-02-27T13:35:06;100541.88;;;20.43;37.97
60212;BME280;46079;48.686;15.598;2023-02-27T13:40:39;100536.75;;;20.42;37.97
60212;BME280;46079;48.686;15.598;2023-02-27T13:43:27;100531.63;;;20.40;37.71
60212;BME280;46079;48.686;15.598;2023-02-27T13:48:48;100542.00;;;20.42;37.79
60212;BME280;46079;48.686;15.598;2023-02-27T13:56:38;100530.75;;;20.40;37.98
60212;BME280;46079;48.686;15.598;2023-02-27T14:04:27;100556.22;;;20.39;38.10
60212;BME280;46079;48.686;15.598;2023-02-27T14:07:08;100543.06;;;20.39;38.20
60212;BME280;46079;48.686;15.598;2023-02-27T14:09:38;100545.69;;;20.39;38.12
60212;BME280;46079;48.686;15.598;2023-02-27T14:12:20;100560.63;;;20.39;38.28
60212;BME280;46079;48.686;15.598;2023-02-27T14:14:50;100554.56;;;20.38;38.35
60212;BME280;46079;48.686;15.598;2023-02-27T14:20:46;100551.09;;;20.38;38.12
60212;BME280;46079;48.686;15.598;2023-02-27T14:25:52;100537.97;;;20.38;38.10
60212;BME280;46079;48.686;15.598;2023-02-27T14:31:01;100547.59;;;20.37;38.04
60212;BME280;46079;48.686;15.598;2023-02-27T14:33:45;100547.59;;;20.37;38.32
60212;BME280;46079;48.686;15.598;2023-02-27T14:36:19;100553.72;;;20.38;38.25
60212;BME280;46079;48.686;15.598;2023-02-27T14:38:45;100558.97;;;20.38;38.13
60212;BME280;46079;48.686;15.598;2023-02-27T14:43:56;100562.53;;;20.37;38.22
60212;BME280;46079;48.686;15.598;2023-02-27T14:46:28;100565.16;;;20.37;38.01
60212;BME280;46079;48.686;15.598;2023-02-27T14:48:59;100560.88;;;20.36;38.20
60212;BME280;46079;48.686;15.598;2023-02-27T14:51:37;100566.97;;;20.36;38.12
60212;BME280;46079;48.686;15.598;2023-02-27T14:54:13;100565.31;;;20.35;38.14
60212;BME280;46079;48.686;15.598;2023-02-27T14:56:40;100558.25;;;20.36;38.14
60212;BME280;46079;48.686;15.598;2023-02-27T14:59:39;100558.38;;;20.34;37.93
60212;BME280;46079;48.686;15.598;2023-02-27T15:02:16;100554.06;;;20.33;38.22